Time,TemperatureF,DewpointF,PressureIn,WindDirection,WindDirectionDegrees,WindSpeedMPH,WindSpeedGustMPH,Humidity,HourlyPrecipIn,Conditions,Clouds,dailyrainin,SolarRadiationWatts/m^2,SoftwareType,DateUTC
2013-06-26 00:03:00,50.2,47.9,29.00,ENE,60,3.5,3.5,92,0.00,RA,FEW,0.00,0.0,WeatherDisplay:10.37,2013-06-25 22:03:00,
2013-06-26 00:08:00,50.4,48.1,29.00,NE,35,5.8,5.8,92,0.00,CLR,FEW,0.00,0.0,WeatherDisplay:10.37,2013-06-25 22:08:00,
2013-06-26 00:13:00,50.4,48.1,29.00,North,10,2.3,2.3,92,0.00,CLR,FEW,0.00,0.0,WeatherDisplay:10.37,2013-06-25 22:13:00,
2013-06-26 00:18:00,50.4,48.1,29.00,North,10,2.3,2.3,92,0.00,CLR,FEW,0.00,0.0,WeatherDisplay:10.37,2013-06-25 22:18:00,
2013-06-26 00:23:00,50.4,48.1,29.00,ENE,60,3.5,3.5,92,0.00,CLR,FEW,0.00,0.0,WeatherDisplay:10.37,2013-06-25 22:23:00,
2013-06-26 00:28:00,50.2,47.9,29.03,North,10,3.5,4.0,92,0.00,CLR,FEW,0.00,0.0,WeatherDisplay:10.37,2013-06-25 22:28:00,
2013-06-26 00:33:00,50.4,48.4,29.03,ENE,75,2.3,2.3,93,0.00,CLR,FEW,0.00,0.0,WeatherDisplay:10.37,2013-06-25 22:33:00,
2013-06-26 00:38:00,50.4,48.4,29.00,NNW,340,0.0,0.6,93,0.00,CLR,FEW,0.00,0.0,WeatherDisplay:10.37,2013-06-25 22:38:00,
2013-06-26 00:43:00,50.4,48.4,29.00,NNW,340,0.0,0.6,93,0.00,CLR,FEW,0.00,0.0,WeatherDisplay:10.37,2013-06-25 22:43:00,
2013-06-26 00:48:00,50.2,48.2,29.00,North,10,2.3,2.3,93,0.00,CLR,FEW,0.00,0.0,WeatherDisplay:10.37,2013-06-25 22:48:00,
2013-06-26 00:53:00,50.2,48.2,29.00,NW,315,1.1,1.3,93,0.00,CLR,FEW,0.00,0.0,WeatherDisplay:10.37,2013-06-25 22:53:00,
2013-06-26 00:58:00,50.0,48.3,29.00,North,10,1.1,1.3,94,0.00,CLR,FEW,0.00,0.0,WeatherDisplay:10.37,2013-06-25 22:58:00,
2013-06-26 01:03:00,50.0,48.3,29.00,NE,45,6.9,6.9,94,0.00,CLR,FEW,0.00,0.0,WeatherDisplay:10.37,2013-06-25 23:03:00,
2013-06-26 01:08:00,50.2,48.5,29.00,NNE,25,3.5,3.5,94,0.00,CLR,FEW,0.00,0.0,WeatherDisplay:10.37,2013-06-25 23:08:00,
2013-06-26 01:13:00,50.2,48.5,29.00,North,5,1.1,1.5,94,0.00,CLR,FEW,0.00,0.0,WeatherDisplay:10.37,2013-06-25 23:13:00,
2013-06-26 01:18:00,50.2,48.5,29.00,North,5,1.1,1.5,94,0.00,CLR,FEW,0.00,0.0,WeatherDisplay:10.37,2013-06-25 23:18:00,
2013-06-26 01:23:00,50.0,48.3,29.00,NNW,345,3.5,3.5,94,0.00,CLR,FEW,0.00,0.0,WeatherDisplay:10.37,2013-06-25 23:23:00,
2013-06-26 01:28:00,50.2,48.5,29.00,North,0,2.3,2.4,94,0.00,CLR,FEW,0.00,0.0,WeatherDisplay:10.37,2013-06-25 23:28:00,
2013-06-26 01:33:00,50.0,48.3,29.00,North,10,4.6,5.1,94,0.00,CLR,FEW,0.00,0.0,WeatherDisplay:10.37,2013-06-25 23:33:00,
2013-06-26 01:38:00,50.0,48.3,29.00,NE,35,4.6,4.6,94,0.00,CLR,FEW,0.00,0.0,WeatherDisplay:10.37,2013-06-25 23:38:00,
2013-06-26 01:43:00,50.0,48.3,29.00,NE,35,4.6,4.6,94,0.00,CLR,FEW,0.00,0.0,WeatherDisplay:10.37,2013-06-25 23:43:00,
2013-06-26 01:48:00,50.0,48.3,29.00,NNE,30,5.8,6.0,94,0.00,CLR,FEW,0.00,0.0,WeatherDisplay:10.37,2013-06-25 23:48:00,
2013-06-26 01:53:00,50.0,48.3,29.00,ENE,70,4.6,4.6,94,0.00,CLR,FEW,0.00,0.0,WeatherDisplay:10.37,2013-06-25 23:53:00,
2013-06-26 01:58:00,50.0,48.1,29.00,NE,40,3.5,3.5,93,0.00,CLR,FEW,0.00,0.0,WeatherDisplay:10.37,2013-06-25 23:58:00,
2013-06-26 02:03:00,50.2,48.2,29.00,NE,35,3.5,3.5,93,0.00,CLR,FEW,0.00,0.0,WeatherDisplay:10.37,2013-06-26 00:03:00,
2013-06-26 02:08:00,50.0,48.1,29.00,NE,40,3.5,4.0,93,0.00,CLR,FEW,0.00,0.0,WeatherDisplay:10.37,2013-06-26 00:08:00,
2013-06-26 02:13:00,50.0,48.1,29.00,NW,315,4.6,4.6,93,0.00,CLR,FEW,0.00,0.0,WeatherDisplay:10.37,2013-06-26 00:13:00,
2013-06-26 02:18:00,50.0,48.1,29.00,NW,315,4.6,4.6,93,0.00,CLR,FEW,0.00,0.0,WeatherDisplay:10.37,2013-06-26 00:18:00,
2013-06-26 02:23:00,50.0,48.1,29.00,West,270,5.8,6.0,93,0.00,CLR,FEW,0.00,0.0,WeatherDisplay:10.37,2013-06-26 00:23:00,
2013-06-26 02:28:00,50.0,48.1,29.00,NE,45,5.8,6.2,93,0.00,CLR,FEW,0.00,0.0,WeatherDisplay:10.37,2013-06-26 00:28:00,
2013-06-26 02:33:00,50.2,48.2,29.00,North,355,5.8,5.8,93,0.00,CLR,FEW,0.00,0.0,WeatherDisplay:10.37,2013-06-26 00:33:00,
2013-06-26 02:39:00,50.2,48.2,29.00,North,5,4.6,5.1,93,0.00,CLR,FEW,0.00,0.0,WeatherDisplay:10.37,2013-06-26 00:39:00,
2013-06-26 02:44:00,50.2,48.2,29.00,North,5,4.6,5.1,93,0.00,CLR,FEW,0.00,0.0,WeatherDisplay:10.37,2013-06-26 00:44:00,
2013-06-26 02:49:00,50.2,48.2,29.00,NW,320,5.8,5.8,93,0.00,CLR,FEW,0.00,0.0,WeatherDisplay:10.37,2013-06-26 00:49:00,
2013-06-26 02:54:00,50.2,48.2,29.00,NNE,20,5.8,5.8,93,0.00,CLR,FEW,0.00,0.0,WeatherDisplay:10.37,2013-06-26 00:54:00,
2013-06-26 02:59:00,50.0,48.1,29.00,North,5,8.1,8.1,93,0.00,CLR,FEW,0.00,0.0,WeatherDisplay:10.37,2013-06-26 00:59:00,
2013-06-26 03:04:00,50.0,48.1,29.00,NE,35,4.6,4.6,93,0.00,CLR,FEW,0.00,0.0,WeatherDisplay:10.37,2013-06-26 01:04:00,
2013-06-26 03:09:00,50.0,48.1,29.00,NNE,20,6.9,6.9,93,0.00,CLR,FEW,0.00,0.0,WeatherDisplay:10.37,2013-06-26 01:09:00,
2013-06-26 03:14:00,50.0,48.1,29.00,NNW,340,6.9,7.1,93,0.00,CLR,FEW,0.00,0.0,WeatherDisplay:10.37,2013-06-26 01:14:00,
2013-06-26 03:19:00,50.0,48.1,29.00,NNW,340,6.9,7.1,93,0.00,CLR,FEW,0.00,0.0,WeatherDisplay:10.37,2013-06-26 01:19:00,
2013-06-26 03:24:00,50.0,48.1,29.00,NW,325,4.6,4.6,93,0.00,CLR,FEW,0.00,0.0,WeatherDisplay:10.37,2013-06-26 01:24:00,
2013-06-26 03:29:00,49.8,47.9,29.00,WNW,290,5.8,5.8,93,0.00,CLR,FEW,0.00,0.0,WeatherDisplay:10.37,2013-06-26 01:29:00,
2013-06-26 03:34:00,49.6,47.7,29.00,NW,305,4.6,4.6,93,0.00,CLR,FEW,0.00,0.0,WeatherDisplay:10.37,2013-06-26 01:34:00,
2013-06-26 03:39:00,49.6,47.7,29.00,NNE,15,4.6,4.7,93,0.00,CLR,FEW,0.00,0.0,WeatherDisplay:10.37,2013-06-26 01:39:00,
2013-06-26 03:44:00,49.6,47.7,29.00,NNE,15,4.6,4.7,93,0.00,CLR,FEW,0.00,0.0,WeatherDisplay:10.37,2013-06-26 01:44:00,
2013-06-26 03:49:00,49.6,48.0,29.00,NNE,15,5.8,6.2,94,0.00,CLR,FEW,0.00,0.0,WeatherDisplay:10.37,2013-06-26 01:49:00,
2013-06-26 03:54:00,49.6,48.0,29.00,NNE,25,5.8,5.8,94,0.00,CLR,FEW,0.00,0.0,WeatherDisplay:10.37,2013-06-26 01:54:00,
2013-06-26 03:59:00,49.6,48.0,29.00,West,275,3.5,3.5,94,0.00,CLR,FEW,0.00,0.0,WeatherDisplay:10.37,2013-06-26 01:59:00,
2013-06-26 04:04:00,49.6,48.0,29.00,NW,305,5.8,5.8,94,0.00,CLR,FEW,0.00,0.0,WeatherDisplay:10.37,2013-06-26 02:04:00,
2013-06-26 04:09:00,49.6,48.0,29.00,NNE,25,5.8,5.8,94,0.00,CLR,FEW,0.00,0.0,WeatherDisplay:10.37,2013-06-26 02:09:00,
2013-06-26 04:14:00,49.6,48.0,29.00,NNE,25,5.8,5.8,94,0.00,CLR,FEW,0.00,0.0,WeatherDisplay:10.37,2013-06-26 02:14:00,
2013-06-26 04:19:00,49.6,48.0,29.00,NNE,25,5.8,5.8,94,0.00,CLR,FEW,0.00,0.0,WeatherDisplay:10.37,2013-06-26 02:19:00,
2013-06-26 04:24:00,49.6,48.0,28.97,East,85,2.3,2.4,94,0.00,CLR,FEW,0.00,0.0,WeatherDisplay:10.37,2013-06-26 02:24:00,
2013-06-26 04:29:00,49.6,48.0,29.00,NE,40,5.8,5.8,94,0.00,OVC,FEW,0.00,0.0,WeatherDisplay:10.37,2013-06-26 02:29:00,
2013-06-26 04:34:00,49.6,48.0,29.00,NNW,335,3.5,3.8,94,0.00,OVC,FEW,0.00,0.0,WeatherDisplay:10.37,2013-06-26 02:34:00,
2013-06-26 04:39:00,49.6,48.0,29.00,WNW,290,1.1,1.1,94,0.00,OVC,FEW,0.00,0.0,WeatherDisplay:10.37,2013-06-26 02:39:00,
2013-06-26 04:44:00,49.6,48.0,29.00,WNW,290,1.1,1.1,94,0.00,OVC,FEW,0.00,0.0,WeatherDisplay:10.37,2013-06-26 02:44:00,
2013-06-26 04:49:00,49.6,48.0,29.00,WNW,290,1.1,1.1,94,0.00,OVC,FEW,0.00,0.0,WeatherDisplay:10.37,2013-06-26 02:49:00,
2013-06-26 04:54:00,49.6,48.0,29.00,NE,45,2.3,2.3,94,0.00,OVC,FEW,0.00,0.0,WeatherDisplay:10.37,2013-06-26 02:54:00,
2013-06-26 04:59:00,49.6,48.0,29.00,NE,45,2.3,2.3,94,0.00,OVC,FEW,0.00,0.0,WeatherDisplay:10.37,2013-06-26 02:59:00,
2013-06-26 05:04:00,49.6,48.0,29.00,NW,320,4.6,4.6,94,0.00,OVC,FEW,0.00,0.0,WeatherDisplay:10.37,2013-06-26 03:04:00,
2013-06-26 05:09:00,49.6,48.0,29.00,NW,320,4.6,4.6,94,0.00,OVC,FEW,0.00,0.0,WeatherDisplay:10.37,2013-06-26 03:09:00,
2013-06-26 05:14:00,49.6,48.0,29.00,NNE,20,2.3,2.6,94,0.00,OVC,FEW,0.00,0.0,WeatherDisplay:10.37,2013-06-26 03:14:00,
2013-06-26 05:19:00,49.6,48.0,29.00,NNE,20,2.3,2.6,94,0.00,OVC,FEW,0.00,0.0,WeatherDisplay:10.37,2013-06-26 03:19:00,
2013-06-26 05:24:00,49.6,48.0,29.00,NW,315,4.6,4.6,94,0.00,OVC,FEW,0.00,0.0,WeatherDisplay:10.37,2013-06-26 03:24:00,
2013-06-26 05:29:00,49.6,48.3,29.00,North,350,3.5,4.0,95,0.00,OVC,FEW,0.00,0.0,WeatherDisplay:10.37,2013-06-26 03:29:00,
2013-06-26 05:34:00,49.6,48.3,29.00,NE,40,6.9,7.0,95,0.01,RA,FEW,0.01,0.0,WeatherDisplay:10.37,2013-06-26 03:34:00,
2013-06-26 05:39:00,49.8,48.4,29.00,North,350,4.6,4.9,95,0.01,OVC,FEW,0.01,0.0,WeatherDisplay:10.37,2013-06-26 03:39:00,
2013-06-26 05:44:00,49.8,48.4,29.00,North,350,4.6,4.9,95,0.01,OVC,FEW,0.01,0.0,WeatherDisplay:10.37,2013-06-26 03:44:00,
2013-06-26 05:49:00,49.8,48.4,29.00,NNW,340,5.8,6.0,95,0.01,OVC,FEW,0.01,0.0,WeatherDisplay:10.37,2013-06-26 03:49:00,
2013-06-26 05:54:00,49.6,48.3,29.00,NE,35,4.6,4.9,95,0.01,OVC,FEW,0.01,0.0,WeatherDisplay:10.37,2013-06-26 03:54:00,
2013-06-26 05:59:00,49.6,48.3,29.00,North,355,3.5,3.8,95,0.01,OVC,FEW,0.01,0.0,WeatherDisplay:10.37,2013-06-26 03:59:00,
2013-06-26 06:01:00,49.6,48.3,29.00,North,355,3.5,3.8,95,0.01,OVC,FEW,0.01,0.0,WeatherDisplay:10.37,2013-06-26 04:01:00,
2013-06-26 06:02:00,49.8,48.4,29.00,NE,35,4.6,4.6,95,0.01,OVC,FEW,0.01,0.0,WeatherDisplay:10.37,2013-06-26 04:02:00,
2013-06-26 06:07:00,49.8,48.4,29.00,NE,40,5.8,5.8,95,0.01,OVC,FEW,0.01,0.0,WeatherDisplay:10.37,2013-06-26 04:07:00,
2013-06-26 06:12:00,49.8,48.4,29.00,NE,40,5.8,5.8,95,0.01,OVC,FEW,0.01,0.0,WeatherDisplay:10.37,2013-06-26 04:12:00,
2013-06-26 06:17:00,49.8,48.4,29.00,North,350,4.6,4.6,95,0.01,OVC,FEW,0.01,0.0,WeatherDisplay:10.37,2013-06-26 04:17:00,
2013-06-26 06:22:00,49.8,48.4,29.00,North,355,5.8,5.8,95,0.02,RA,FEW,0.02,0.0,WeatherDisplay:10.37,2013-06-26 04:22:00,
2013-06-26 06:27:00,50.0,48.6,29.00,NNW,345,4.6,5.1,95,0.02,OVC,FEW,0.02,0.0,WeatherDisplay:10.37,2013-06-26 04:27:00,
2013-06-26 06:32:00,49.8,48.4,29.00,NE,40,5.8,6.2,95,0.01,OVC,FEW,0.02,0.0,WeatherDisplay:10.37,2013-06-26 04:32:00,
2013-06-26 06:37:00,49.8,48.4,29.00,NE,40,5.8,6.2,95,0.01,OVC,FEW,0.02,0.0,WeatherDisplay:10.37,2013-06-26 04:37:00,
2013-06-26 06:42:00,49.6,48.3,29.00,NW,305,10.4,10.4,95,0.01,OVC,FEW,0.02,0.0,WeatherDisplay:10.37,2013-06-26 04:42:00,
2013-06-26 06:47:00,49.6,48.3,29.00,West,275,6.9,6.9,95,0.01,OVC,FEW,0.02,0.0,WeatherDisplay:10.37,2013-06-26 04:47:00,
2013-06-26 06:52:00,49.8,48.4,29.00,NNE,25,5.8,6.2,95,0.01,OVC,FEW,0.02,0.0,WeatherDisplay:10.37,2013-06-26 04:52:00,
2013-06-26 06:57:00,49.8,48.2,29.00,North,5,8.1,8.1,94,0.01,OVC,FEW,0.02,0.0,WeatherDisplay:10.37,2013-06-26 04:57:00,
2013-06-26 07:02:00,49.8,48.2,29.00,NW,315,9.2,9.2,94,0.01,OVC,FEW,0.02,0.0,WeatherDisplay:10.37,2013-06-26 05:02:00,
2013-06-26 07:07:00,50.0,48.3,29.00,NNW,335,6.9,6.9,94,0.02,RA,FEW,0.03,0.0,WeatherDisplay:10.37,2013-06-26 05:07:00,
2013-06-26 07:12:00,50.0,48.3,29.00,NNW,335,6.9,6.9,94,0.02,RA,FEW,0.03,0.0,WeatherDisplay:10.37,2013-06-26 05:12:00,
2013-06-26 07:17:00,50.0,48.3,29.00,North,355,5.8,5.8,94,0.02,OVC,FEW,0.03,0.0,WeatherDisplay:10.37,2013-06-26 05:17:00,
2013-06-26 07:22:00,50.0,48.3,29.00,North,5,4.6,4.7,94,0.01,OVC,FEW,0.03,0.0,WeatherDisplay:10.37,2013-06-26 05:22:00,
2013-06-26 07:27:00,50.2,48.5,29.00,North,0,6.9,6.9,94,0.01,OVC,FEW,0.03,0.0,WeatherDisplay:10.37,2013-06-26 05:27:00,
2013-06-26 07:32:00,50.2,48.5,29.00,WNW,285,4.6,4.6,94,0.01,OVC,FEW,0.03,0.0,WeatherDisplay:10.37,2013-06-26 05:32:00,
2013-06-26 07:37:00,50.2,48.5,29.00,WNW,285,4.6,4.6,94,0.01,OVC,FEW,0.03,0.0,WeatherDisplay:10.37,2013-06-26 05:37:00,
2013-06-26 07:42:00,50.2,48.5,29.00,West,275,6.9,6.9,94,0.02,RA,FEW,0.05,0.0,WeatherDisplay:10.37,2013-06-26 05:42:00,
2013-06-26 07:47:00,50.4,49.0,29.00,NNW,340,5.8,6.2,95,0.02,OVC,FEW,0.05,0.0,WeatherDisplay:10.37,2013-06-26 05:47:00,
2013-06-26 07:52:00,50.2,48.5,29.00,NNW,335,5.8,5.8,94,0.02,OVC,FEW,0.05,0.0,WeatherDisplay:10.37,2013-06-26 05:52:00,
2013-06-26 07:57:00,50.4,49.0,29.00,NNW,345,5.8,5.8,95,0.02,OVC,FEW,0.05,0.0,WeatherDisplay:10.37,2013-06-26 05:57:00,
2013-06-26 08:02:00,50.4,48.7,29.00,NNE,25,5.8,5.8,94,0.02,OVC,FEW,0.05,0.0,WeatherDisplay:10.37,2013-06-26 06:02:00,
2013-06-26 08:07:00,50.5,48.9,29.00,NW,325,4.6,5.1,94,0.01,OVC,FEW,0.05,0.0,WeatherDisplay:10.37,2013-06-26 06:07:00,
2013-06-26 08:12:00,50.5,48.9,29.00,NW,325,4.6,5.1,94,0.01,OVC,FEW,0.05,0.0,WeatherDisplay:10.37,2013-06-26 06:12:00,
2013-06-26 08:17:00,50.5,48.9,29.03,North,350,6.9,6.9,94,0.02,RA,FEW,0.06,0.0,WeatherDisplay:10.37,2013-06-26 06:17:00,
2013-06-26 08:22:00,50.5,48.9,29.03,North,350,6.9,7.3,94,0.02,OVC,FEW,0.06,0.0,WeatherDisplay:10.37,2013-06-26 06:22:00,
2013-06-26 08:27:00,50.5,48.9,29.03,North,350,6.9,7.3,94,0.02,OVC,FEW,0.06,0.0,WeatherDisplay:10.37,2013-06-26 06:27:00,
2013-06-26 08:32:00,50.7,49.1,29.03,NE,45,5.8,6.0,94,0.02,OVC,FEW,0.06,0.0,WeatherDisplay:10.37,2013-06-26 06:32:00,
2013-06-26 08:37:00,50.7,49.1,29.03,NE,45,5.8,6.0,94,0.02,OVC,FEW,0.06,0.0,WeatherDisplay:10.37,2013-06-26 06:37:00,
2013-06-26 08:42:00,51.1,49.4,29.03,NE,40,5.8,5.8,94,0.01,OVC,FEW,0.06,0.0,WeatherDisplay:10.37,2013-06-26 06:42:00,
2013-06-26 08:47:00,50.9,49.2,29.03,NNW,340,5.8,5.8,94,0.02,RA,FEW,0.07,0.0,WeatherDisplay:10.37,2013-06-26 06:47:00,
2013-06-26 08:52:00,50.9,49.2,29.03,NNW,345,6.9,6.9,94,0.02,OVC,FEW,0.07,0.0,WeatherDisplay:10.37,2013-06-26 06:52:00,
2013-06-26 08:57:00,50.7,49.1,29.03,NNW,340,8.1,8.3,94,0.02,OVC,FEW,0.07,0.0,WeatherDisplay:10.37,2013-06-26 06:57:00,
2013-06-26 09:02:00,51.4,49.8,29.03,NW,305,2.3,2.3,94,0.02,OVC,FEW,0.07,0.0,WeatherDisplay:10.37,2013-06-26 07:02:00,
2013-06-26 09:07:00,51.3,49.6,29.03,NNE,30,4.6,4.9,94,0.02,OVC,FEW,0.07,0.0,WeatherDisplay:10.37,2013-06-26 07:07:00,
2013-06-26 09:12:00,51.3,49.6,29.03,NNE,30,4.6,4.9,94,0.02,OVC,FEW,0.07,0.0,WeatherDisplay:10.37,2013-06-26 07:12:00,
2013-06-26 09:17:00,51.3,49.3,29.03,North,350,4.6,4.7,93,0.01,OVC,FEW,0.07,0.0,WeatherDisplay:10.37,2013-06-26 07:17:00,
2013-06-26 09:22:00,51.6,49.7,29.03,WNW,295,5.8,5.8,93,0.01,OVC,FEW,0.07,0.0,WeatherDisplay:10.37,2013-06-26 07:22:00,
2013-06-26 09:27:00,51.8,49.8,29.03,NNE,30,3.5,3.8,93,0.01,OVC,FEW,0.07,0.0,WeatherDisplay:10.37,2013-06-26 07:27:00,
2013-06-26 09:32:00,51.4,49.5,29.03,NNW,345,6.9,6.9,93,0.01,OVC,FEW,0.07,0.0,WeatherDisplay:10.37,2013-06-26 07:32:00,
2013-06-26 09:37:00,51.4,49.5,29.03,NNW,345,6.9,6.9,93,0.01,OVC,FEW,0.07,0.0,WeatherDisplay:10.37,2013-06-26 07:37:00,
2013-06-26 09:42:00,51.8,49.8,29.03,NNE,25,5.8,5.8,93,0.01,OVC,FEW,0.07,0.0,WeatherDisplay:10.37,2013-06-26 07:42:00,
2013-06-26 09:47:00,52.2,50.2,29.03,North,0,5.8,5.8,93,0.00,OVC,FEW,0.07,0.0,WeatherDisplay:10.37,2013-06-26 07:47:00,
2013-06-26 09:52:00,52.2,50.2,29.03,North,350,8.1,8.1,93,0.01,RA,FEW,0.08,0.0,WeatherDisplay:10.37,2013-06-26 07:52:00,
2013-06-26 09:57:00,51.8,49.5,29.03,NE,55,8.1,8.1,92,0.01,OVC,FEW,0.08,0.0,WeatherDisplay:10.37,2013-06-26 07:57:00,
2013-06-26 10:02:00,51.8,49.3,29.03,WNW,300,8.1,8.3,91,0.01,OVC,FEW,0.08,0.0,WeatherDisplay:10.37,2013-06-26 08:02:00,
2013-06-26 10:07:00,52.3,50.1,29.03,North,355,5.8,5.8,92,0.01,OVC,FEW,0.08,0.0,WeatherDisplay:10.37,2013-06-26 08:07:00,
2013-06-26 10:12:00,52.3,50.1,29.03,North,355,5.8,5.8,92,0.01,OVC,FEW,0.08,0.0,WeatherDisplay:10.37,2013-06-26 08:12:00,
2013-06-26 10:17:00,52.2,49.9,29.06,NW,305,5.8,6.2,92,0.01,OVC,FEW,0.08,0.0,WeatherDisplay:10.37,2013-06-26 08:17:00,
2013-06-26 10:22:00,52.2,49.9,29.06,NE,55,4.6,5.1,92,0.01,OVC,FEW,0.08,0.0,WeatherDisplay:10.37,2013-06-26 08:22:00,
2013-06-26 10:27:00,51.8,49.3,29.03,ENE,65,9.2,9.6,91,0.01,OVC,FEW,0.08,0.0,WeatherDisplay:10.37,2013-06-26 08:27:00,
2013-06-26 10:32:00,52.2,49.6,29.03,NE,40,8.1,8.1,91,0.01,OVC,FEW,0.08,0.0,WeatherDisplay:10.37,2013-06-26 08:32:00,
2013-06-26 10:37:00,52.2,49.6,29.03,NE,40,8.1,8.1,91,0.01,OVC,FEW,0.08,0.0,WeatherDisplay:10.37,2013-06-26 08:37:00,
2013-06-26 10:42:00,52.0,49.4,29.06,NW,320,10.4,10.4,91,0.01,OVC,FEW,0.08,0.0,WeatherDisplay:10.37,2013-06-26 08:42:00,
2013-06-26 10:48:00,52.2,49.6,29.06,ESE,110,8.1,8.1,91,0.01,OVC,FEW,0.08,0.0,WeatherDisplay:10.37,2013-06-26 08:48:00,
2013-06-26 10:53:00,52.2,49.3,29.06,NNW,345,9.2,9.6,90,0.00,OVC,FEW,0.08,0.0,WeatherDisplay:10.37,2013-06-26 08:53:00,
2013-06-26 10:58:00,52.2,49.0,29.06,North,350,9.2,9.4,89,0.00,OVC,FEW,0.08,0.0,WeatherDisplay:10.37,2013-06-26 08:58:00,
2013-06-26 11:03:00,52.3,49.2,29.06,East,80,9.2,9.2,89,0.00,OVC,FEW,0.08,0.0,WeatherDisplay:10.37,2013-06-26 09:03:00,
2013-06-26 11:08:00,52.5,49.4,29.06,NE,50,8.1,8.1,89,0.00,OVC,FEW,0.08,0.0,WeatherDisplay:10.37,2013-06-26 09:08:00,
2013-06-26 11:13:00,52.5,49.4,29.06,NE,50,8.1,8.1,89,0.00,OVC,FEW,0.08,0.0,WeatherDisplay:10.37,2013-06-26 09:13:00,
2013-06-26 11:18:00,52.9,49.4,29.06,NE,55,8.1,8.1,88,0.00,OVC,FEW,0.08,0.0,WeatherDisplay:10.37,2013-06-26 09:18:00,
2013-06-26 11:23:00,53.8,50.0,29.06,NNE,25,8.1,8.1,87,0.00,OVC,FEW,0.08,0.0,WeatherDisplay:10.37,2013-06-26 09:23:00,
2013-06-26 11:28:00,54.0,49.6,29.06,NE,40,12.7,12.7,85,0.00,OVC,FEW,0.08,0.0,WeatherDisplay:10.37,2013-06-26 09:28:00,
2013-06-26 11:33:00,54.5,49.4,29.06,ENE,70,10.4,10.4,83,0.00,OVC,FEW,0.08,0.0,WeatherDisplay:10.37,2013-06-26 09:33:00,
2013-06-26 11:38:00,54.5,49.4,29.06,ENE,70,10.4,10.4,83,0.00,OVC,FEW,0.08,0.0,WeatherDisplay:10.37,2013-06-26 09:38:00,
2013-06-26 11:43:00,54.9,49.8,29.06,NE,35,9.2,9.2,83,0.00,OVC,FEW,0.08,0.0,WeatherDisplay:10.37,2013-06-26 09:43:00,
2013-06-26 11:48:00,54.5,49.4,29.06,NE,50,8.1,8.1,83,0.00,OVC,FEW,0.08,0.0,WeatherDisplay:10.37,2013-06-26 09:48:00,
2013-06-26 11:53:00,53.2,48.2,29.06,NE,40,12.7,13.2,83,0.00,OVC,FEW,0.08,0.0,WeatherDisplay:10.37,2013-06-26 09:53:00,
2013-06-26 11:58:00,52.9,48.2,29.06,ENE,65,9.2,9.2,84,0.00,OVC,FEW,0.08,0.0,WeatherDisplay:10.37,2013-06-26 09:58:00,
2013-06-26 12:03:00,52.5,48.8,29.06,NE,45,6.9,6.9,87,0.00,OVC,FEW,0.08,0.0,WeatherDisplay:10.37,2013-06-26 10:03:00,
2013-06-26 12:08:00,52.5,48.8,29.06,ENE,60,5.8,5.8,87,0.01,RA,FEW,0.09,0.0,WeatherDisplay:10.37,2013-06-26 10:08:00,
2013-06-26 12:13:00,52.5,48.8,29.06,ENE,60,5.8,5.8,87,0.01,RA,FEW,0.09,0.0,WeatherDisplay:10.37,2013-06-26 10:13:00,
2013-06-26 12:18:00,52.7,48.9,29.09,NE,55,5.8,6.0,87,0.01,OVC,FEW,0.09,0.0,WeatherDisplay:10.37,2013-06-26 10:18:00,
2013-06-26 12:23:00,52.5,48.8,29.09,NE,55,5.8,5.8,87,0.01,OVC,FEW,0.09,0.0,WeatherDisplay:10.37,2013-06-26 10:23:00,
2013-06-26 12:28:00,52.5,48.8,29.06,ENE,65,4.6,4.6,87,0.01,OVC,FEW,0.09,0.0,WeatherDisplay:10.37,2013-06-26 10:28:00,
2013-06-26 12:33:00,52.2,48.1,29.06,NE,55,11.5,11.7,86,0.01,OVC,FEW,0.09,0.0,WeatherDisplay:10.37,2013-06-26 10:33:00,
2013-06-26 12:38:00,52.2,48.1,29.06,NE,55,11.5,11.7,86,0.01,OVC,FEW,0.09,0.0,WeatherDisplay:10.37,2013-06-26 10:38:00,
2013-06-26 12:43:00,52.3,48.6,29.09,NW,325,4.6,4.9,87,0.01,OVC,FEW,0.09,0.0,WeatherDisplay:10.37,2013-06-26 10:43:00,
2013-06-26 12:48:00,52.5,49.1,29.09,NNE,30,3.5,3.5,88,0.01,OVC,FEW,0.09,0.0,WeatherDisplay:10.37,2013-06-26 10:48:00,
2013-06-26 12:53:00,52.9,49.1,29.09,NNE,15,5.8,5.8,87,0.01,OVC,FEW,0.09,0.0,WeatherDisplay:10.37,2013-06-26 10:53:00,
2013-06-26 12:58:00,53.8,49.4,29.09,NNW,340,6.9,7.1,85,0.01,OVC,FEW,0.09,0.0,WeatherDisplay:10.37,2013-06-26 10:58:00,
2013-06-26 13:03:00,53.8,48.7,29.09,NW,325,5.8,5.8,83,0.01,OVC,FEW,0.09,0.0,WeatherDisplay:10.37,2013-06-26 11:03:00,
2013-06-26 13:08:00,53.6,48.6,29.09,NNW,330,8.1,8.1,83,0.00,OVC,FEW,0.09,0.0,WeatherDisplay:10.37,2013-06-26 11:08:00,
2013-06-26 13:13:00,53.6,48.6,29.09,NNW,330,8.1,8.1,83,0.00,OVC,FEW,0.09,0.0,WeatherDisplay:10.37,2013-06-26 11:13:00,
2013-06-26 13:18:00,53.4,48.4,29.09,NE,35,8.1,8.1,83,0.00,OVC,FEW,0.09,0.0,WeatherDisplay:10.37,2013-06-26 11:18:00,
2013-06-26 13:23:00,52.9,47.9,29.09,WNW,290,5.8,5.8,83,0.00,OVC,FEW,0.09,0.0,WeatherDisplay:10.37,2013-06-26 11:23:00,
2013-06-26 13:28:00,52.9,48.2,29.09,NNE,30,5.8,5.8,84,0.00,OVC,FEW,0.09,0.0,WeatherDisplay:10.37,2013-06-26 11:28:00,
2013-06-26 13:33:00,52.7,48.0,29.09,NE,40,8.1,8.1,84,0.00,OVC,FEW,0.09,0.0,WeatherDisplay:10.37,2013-06-26 11:33:00,
2013-06-26 13:38:00,52.7,48.0,29.09,NE,40,8.1,8.1,84,0.00,OVC,FEW,0.09,0.0,WeatherDisplay:10.37,2013-06-26 11:38:00,
2013-06-26 13:43:00,53.1,48.7,29.09,NNE,30,3.5,3.5,85,0.00,OVC,FEW,0.09,0.0,WeatherDisplay:10.37,2013-06-26 11:43:00,
2013-06-26 13:48:00,52.9,48.5,29.09,NNW,340,4.6,4.6,85,0.00,OVC,FEW,0.09,0.0,WeatherDisplay:10.37,2013-06-26 11:48:00,
2013-06-26 13:53:00,52.5,48.5,29.09,NW,320,4.6,4.6,86,0.00,OVC,FEW,0.09,0.0,WeatherDisplay:10.37,2013-06-26 11:53:00,
2013-06-26 13:58:00,53.4,49.0,29.09,ENE,70,3.5,3.8,85,0.00,OVC,FEW,0.09,0.0,WeatherDisplay:10.37,2013-06-26 11:58:00,
2013-06-26 14:03:00,55.0,49.6,29.09,East,85,6.9,7.3,82,0.00,OVC,FEW,0.09,0.0,WeatherDisplay:10.37,2013-06-26 12:03:00,
2013-06-26 14:08:00,55.0,49.6,29.09,East,85,6.9,7.3,82,0.00,OVC,FEW,0.09,0.0,WeatherDisplay:10.37,2013-06-26 12:08:00,
2013-06-26 14:13:00,55.0,49.6,29.09,East,85,6.9,7.3,82,0.00,OVC,FEW,0.09,0.0,WeatherDisplay:10.37,2013-06-26 12:13:00,
2013-06-26 14:18:00,53.4,47.4,29.09,NE,45,9.2,9.2,80,0.00,OVC,FEW,0.09,0.0,WeatherDisplay:10.37,2013-06-26 12:18:00,
2013-06-26 14:23:00,53.1,47.4,29.09,NE,45,6.9,6.9,81,0.00,OVC,FEW,0.09,0.0,WeatherDisplay:10.37,2013-06-26 12:23:00,
2013-06-26 14:28:00,54.1,49.1,29.09,NW,325,8.1,8.1,83,0.00,OVC,FEW,0.09,0.0,WeatherDisplay:10.37,2013-06-26 12:28:00,
2013-06-26 14:33:00,53.8,48.1,29.09,NNW,335,8.1,8.5,81,0.00,OVC,FEW,0.09,0.0,WeatherDisplay:10.37,2013-06-26 12:33:00,
2013-06-26 14:38:00,53.8,48.1,29.09,NNW,335,8.1,8.5,81,0.00,OVC,FEW,0.09,0.0,WeatherDisplay:10.37,2013-06-26 12:38:00,
2013-06-26 14:43:00,54.3,48.9,29.09,NW,320,6.9,6.9,82,0.00,OVC,FEW,0.09,0.0,WeatherDisplay:10.37,2013-06-26 12:43:00,
2013-06-26 14:48:00,54.1,48.4,29.09,North,355,4.6,4.6,81,0.00,OVC,FEW,0.09,0.0,WeatherDisplay:10.37,2013-06-26 12:48:00,
2013-06-26 14:53:00,53.4,47.7,29.09,ENE,70,4.6,5.1,81,0.00,OVC,FEW,0.09,0.0,WeatherDisplay:10.37,2013-06-26 12:53:00,
2013-06-26 14:58:00,53.1,47.7,29.09,NE,55,9.2,9.2,82,0.00,OVC,FEW,0.09,0.0,WeatherDisplay:10.37,2013-06-26 12:58:00,
2013-06-26 15:03:00,52.7,47.4,29.09,NW,320,8.1,8.1,82,0.00,OVC,FEW,0.09,0.0,WeatherDisplay:10.37,2013-06-26 13:03:00,
2013-06-26 15:08:00,53.1,47.7,29.09,NNE,20,5.8,5.8,82,0.00,OVC,FEW,0.09,0.0,WeatherDisplay:10.37,2013-06-26 13:08:00,
2013-06-26 15:13:00,53.1,47.7,29.09,NNE,20,5.8,5.8,82,0.00,OVC,FEW,0.09,0.0,WeatherDisplay:10.37,2013-06-26 13:13:00,
2013-06-26 15:18:00,53.8,48.4,29.09,North,10,3.5,3.5,82,0.00,OVC,FEW,0.09,0.0,WeatherDisplay:10.37,2013-06-26 13:18:00,
2013-06-26 15:23:00,54.3,47.9,29.09,North,350,5.8,5.8,79,0.00,OVC,FEW,0.09,0.0,WeatherDisplay:10.37,2013-06-26 13:23:00,
2013-06-26 15:28:00,54.7,48.0,29.09,NNW,335,4.6,4.9,78,0.00,OVC,FEW,0.09,0.0,WeatherDisplay:10.37,2013-06-26 13:28:00,
2013-06-26 15:33:00,54.0,47.3,29.09,North,5,6.9,7.3,78,0.00,OVC,FEW,0.09,0.0,WeatherDisplay:10.37,2013-06-26 13:33:00,
2013-06-26 15:38:00,54.0,47.3,29.09,North,5,6.9,7.3,78,0.00,OVC,FEW,0.09,0.0,WeatherDisplay:10.37,2013-06-26 13:38:00,
2013-06-26 15:43:00,53.6,46.9,29.09,NW,320,5.8,5.8,78,0.00,OVC,FEW,0.09,0.0,WeatherDisplay:10.37,2013-06-26 13:43:00,
2013-06-26 15:48:00,53.2,46.9,29.09,NW,305,4.6,4.7,79,0.00,OVC,FEW,0.09,0.0,WeatherDisplay:10.37,2013-06-26 13:48:00,
2013-06-26 15:53:00,53.6,47.6,29.09,NNW,335,1.1,1.3,80,0.00,OVC,FEW,0.09,0.0,WeatherDisplay:10.37,2013-06-26 13:53:00,
2013-06-26 15:58:00,53.2,47.2,29.09,NE,45,3.5,3.5,80,0.00,OVC,FEW,0.09,0.0,WeatherDisplay:10.37,2013-06-26 13:58:00,
2013-06-26 16:03:00,53.1,47.4,29.09,North,10,5.8,6.2,81,0.00,OVC,FEW,0.09,0.0,WeatherDisplay:10.37,2013-06-26 14:03:00,
2013-06-26 16:08:00,52.7,46.0,29.09,NE,50,6.9,7.3,78,0.00,OVC,FEW,0.09,0.0,WeatherDisplay:10.37,2013-06-26 14:08:00,
2013-06-26 16:13:00,52.7,46.0,29.09,NE,50,6.9,7.3,78,0.00,OVC,FEW,0.09,0.0,WeatherDisplay:10.37,2013-06-26 14:13:00,
2013-06-26 16:18:00,52.5,46.2,29.09,West,280,4.6,4.6,79,0.00,OVC,FEW,0.09,0.0,WeatherDisplay:10.37,2013-06-26 14:18:00,
2013-06-26 16:23:00,52.3,46.0,29.09,NE,35,5.8,5.8,79,0.00,OVC,FEW,0.09,0.0,WeatherDisplay:10.37,2013-06-26 14:23:00,
2013-06-26 16:28:00,52.3,46.0,29.09,North,5,2.3,2.8,79,0.00,OVC,FEW,0.09,0.0,WeatherDisplay:10.37,2013-06-26 14:28:00,
2013-06-26 16:33:00,52.2,46.2,29.09,North,10,2.3,2.6,80,0.00,OVC,FEW,0.09,0.0,WeatherDisplay:10.37,2013-06-26 14:33:00,
2013-06-26 16:38:00,52.2,46.2,29.09,North,10,2.3,2.6,80,0.00,OVC,FEW,0.09,0.0,WeatherDisplay:10.37,2013-06-26 14:38:00,
2013-06-26 16:43:00,52.2,46.5,29.09,North,10,3.5,3.5,81,0.00,OVC,FEW,0.09,0.0,WeatherDisplay:10.37,2013-06-26 14:43:00,
2013-06-26 16:48:00,52.3,46.7,29.09,North,350,1.1,1.3,81,0.00,OVC,FEW,0.09,0.0,WeatherDisplay:10.37,2013-06-26 14:48:00,
2013-06-26 16:53:00,52.5,46.9,29.09,WNW,300,4.6,4.7,81,0.00,OVC,FEW,0.09,0.0,WeatherDisplay:10.37,2013-06-26 14:53:00,
2013-06-26 16:58:00,52.5,46.9,29.09,NNW,340,2.3,2.4,81,0.00,OVC,FEW,0.09,0.0,WeatherDisplay:10.37,2013-06-26 14:58:00,
2013-06-26 17:03:00,52.9,46.9,29.09,West,280,4.6,5.1,80,0.00,OVC,FEW,0.09,0.0,WeatherDisplay:10.37,2013-06-26 15:03:00,
2013-06-26 17:08:00,53.2,47.2,29.09,NW,320,5.8,5.8,80,0.00,OVC,FEW,0.09,0.0,WeatherDisplay:10.37,2013-06-26 15:08:00,
2013-06-26 17:13:00,53.2,47.2,29.09,NW,320,5.8,5.8,80,0.00,OVC,FEW,0.09,0.0,WeatherDisplay:10.37,2013-06-26 15:13:00,
2013-06-26 17:18:00,53.8,46.7,29.09,NNW,345,4.6,4.6,77,0.00,OVC,FEW,0.09,0.0,WeatherDisplay:10.37,2013-06-26 15:18:00,
2013-06-26 17:23:00,53.4,46.4,29.09,NNE,25,3.5,3.5,77,0.00,OVC,FEW,0.09,0.0,WeatherDisplay:10.37,2013-06-26 15:23:00,
2013-06-26 17:28:00,53.1,45.7,29.12,North,350,5.8,5.8,76,0.00,OVC,FEW,0.09,0.0,WeatherDisplay:10.37,2013-06-26 15:28:00,
2013-06-26 17:33:00,52.9,46.2,29.12,North,350,2.3,2.3,78,0.00,OVC,FEW,0.09,0.0,WeatherDisplay:10.37,2013-06-26 15:33:00,
2013-06-26 17:38:00,52.9,46.2,29.12,North,350,2.3,2.3,78,0.00,OVC,FEW,0.09,0.0,WeatherDisplay:10.37,2013-06-26 15:38:00,
2013-06-26 17:43:00,53.1,46.7,29.09,WNW,295,0.0,0.0,79,0.00,OVC,FEW,0.09,0.0,WeatherDisplay:10.37,2013-06-26 15:43:00,
2013-06-26 17:48:00,53.1,46.7,29.09,NNW,335,2.3,2.3,79,0.00,OVC,FEW,0.09,0.0,WeatherDisplay:10.37,2013-06-26 15:48:00,
2013-06-26 17:53:00,53.2,46.9,29.09,NNW,340,4.6,4.7,79,0.00,OVC,FEW,0.09,0.0,WeatherDisplay:10.37,2013-06-26 15:53:00,
2013-06-26 17:58:00,54.3,47.6,29.09,North,5,3.5,3.5,78,0.00,OVC,FEW,0.09,0.0,WeatherDisplay:10.37,2013-06-26 15:58:00,
2013-06-26 18:03:00,54.9,47.8,29.09,NNE,15,5.8,6.0,77,0.00,OVC,FEW,0.09,0.0,WeatherDisplay:10.37,2013-06-26 16:03:00,
2013-06-26 18:08:00,55.2,47.4,29.09,NW,325,4.6,4.6,75,0.00,OVC,FEW,0.09,0.0,WeatherDisplay:10.37,2013-06-26 16:08:00,
2013-06-26 18:13:00,55.2,47.4,29.09,NW,325,4.6,4.6,75,0.00,OVC,FEW,0.09,0.0,WeatherDisplay:10.37,2013-06-26 16:13:00,
2013-06-26 18:18:00,55.2,47.4,29.09,ENE,60,3.5,3.5,75,0.00,OVC,FEW,0.09,0.0,WeatherDisplay:10.37,2013-06-26 16:18:00,
2013-06-26 18:23:00,55.6,47.1,29.09,East,95,4.6,4.6,73,0.00,OVC,FEW,0.09,0.0,WeatherDisplay:10.37,2013-06-26 16:23:00,
2013-06-26 18:28:00,55.4,46.9,29.09,NE,50,5.8,5.8,73,0.00,OVC,FEW,0.09,0.0,WeatherDisplay:10.37,2013-06-26 16:28:00,
2013-06-26 18:33:00,55.8,47.6,29.09,NNE,20,3.5,3.5,74,0.00,OVC,FEW,0.09,0.0,WeatherDisplay:10.37,2013-06-26 16:33:00,
2013-06-26 18:38:00,55.8,47.6,29.09,NNE,20,3.5,3.5,74,0.00,OVC,FEW,0.09,0.0,WeatherDisplay:10.37,2013-06-26 16:38:00,
2013-06-26 18:43:00,55.8,46.9,29.09,NNW,335,3.5,3.5,72,0.00,OVC,FEW,0.09,0.0,WeatherDisplay:10.37,2013-06-26 16:43:00,
2013-06-26 18:48:00,55.4,46.2,29.09,NNE,15,4.6,4.6,71,0.00,OVC,FEW,0.09,0.0,WeatherDisplay:10.37,2013-06-26 16:48:00,
2013-06-26 18:53:00,55.4,46.9,29.09,NE,40,2.3,2.3,73,0.00,OVC,FEW,0.09,0.0,WeatherDisplay:10.37,2013-06-26 16:53:00,
2013-06-26 18:58:00,55.6,47.1,29.09,ENE,65,2.3,2.3,73,0.00,OVC,FEW,0.09,0.0,WeatherDisplay:10.37,2013-06-26 16:58:00,
2013-06-26 19:03:00,55.4,47.2,29.09,NW,310,2.3,2.6,74,0.00,OVC,FEW,0.09,0.0,WeatherDisplay:10.37,2013-06-26 17:03:00,
2013-06-26 19:08:00,55.2,46.7,29.09,North,0,3.5,3.5,73,0.00,OVC,FEW,0.09,0.0,WeatherDisplay:10.37,2013-06-26 17:08:00,
2013-06-26 19:13:00,55.2,46.7,29.09,North,0,3.5,3.5,73,0.00,OVC,FEW,0.09,0.0,WeatherDisplay:10.37,2013-06-26 17:13:00,
2013-06-26 19:18:00,55.0,46.9,29.09,NNW,335,2.3,2.4,74,0.00,OVC,FEW,0.09,0.0,WeatherDisplay:10.37,2013-06-26 17:18:00,
2013-06-26 19:23:00,54.7,46.6,29.09,North,0,3.5,3.5,74,0.00,OVC,FEW,0.09,0.0,WeatherDisplay:10.37,2013-06-26 17:23:00,
2013-06-26 19:28:00,54.3,46.6,29.09,NNE,20,3.5,3.5,75,0.00,OVC,FEW,0.09,0.0,WeatherDisplay:10.37,2013-06-26 17:28:00,
2013-06-26 19:33:00,54.1,46.7,29.09,NW,320,0.0,0.0,76,0.00,OVC,FEW,0.09,0.0,WeatherDisplay:10.37,2013-06-26 17:33:00,
2013-06-26 19:38:00,54.1,46.7,29.09,NW,320,0.0,0.0,76,0.00,OVC,FEW,0.09,0.0,WeatherDisplay:10.37,2013-06-26 17:38:00,
2013-06-26 19:43:00,54.0,47.3,29.09,North,10,0.0,0.0,78,0.00,OVC,FEW,0.09,0.0,WeatherDisplay:10.37,2013-06-26 17:43:00,
2013-06-26 19:48:00,54.0,47.9,29.09,NNW,345,0.0,0.0,80,0.00,OVC,FEW,0.09,0.0,WeatherDisplay:10.37,2013-06-26 17:48:00,
2013-06-26 19:53:00,53.4,47.7,29.09,North,5,0.0,0.0,81,0.00,OVC,FEW,0.09,0.0,WeatherDisplay:10.37,2013-06-26 17:53:00,
2013-06-26 19:58:00,53.2,47.9,29.09,North,10,0.0,0.0,82,0.00,OVC,FEW,0.09,0.0,WeatherDisplay:10.37,2013-06-26 17:58:00,
2013-06-26 20:03:00,53.2,48.2,29.09,North,5,0.0,0.0,83,0.00,OVC,FEW,0.09,0.0,WeatherDisplay:10.37,2013-06-26 18:03:00,
2013-06-26 20:08:00,52.9,47.5,29.09,NNW,345,0.0,0.2,82,0.00,OVC,FEW,0.09,0.0,WeatherDisplay:10.37,2013-06-26 18:08:00,
2013-06-26 20:13:00,52.9,47.5,29.09,NNW,345,0.0,0.2,82,0.00,OVC,FEW,0.09,0.0,WeatherDisplay:10.37,2013-06-26 18:13:00,
2013-06-26 20:18:00,52.9,48.5,29.12,NNW,335,0.0,0.0,85,0.00,OVC,FEW,0.09,0.0,WeatherDisplay:10.37,2013-06-26 18:18:00,
2013-06-26 20:23:00,52.7,48.6,29.12,NNE,15,0.0,0.0,86,0.00,OVC,FEW,0.09,0.0,WeatherDisplay:10.37,2013-06-26 18:23:00,
2013-06-26 20:28:00,52.5,48.8,29.09,North,10,0.0,0.0,87,0.00,OVC,FEW,0.09,0.0,WeatherDisplay:10.37,2013-06-26 18:28:00,
2013-06-26 20:33:00,52.3,48.6,29.09,NNE,15,0.0,0.0,87,0.00,OVC,FEW,0.09,0.0,WeatherDisplay:10.37,2013-06-26 18:33:00,
2013-06-26 20:38:00,52.3,48.6,29.09,NNE,15,0.0,0.0,87,0.00,OVC,FEW,0.09,0.0,WeatherDisplay:10.37,2013-06-26 18:38:00,
2013-06-26 20:43:00,52.2,48.7,29.09,NNW,335,0.0,0.0,88,0.00,OVC,FEW,0.09,0.0,WeatherDisplay:10.37,2013-06-26 18:43:00,
2013-06-26 20:48:00,52.0,48.5,29.09,NNE,25,0.0,0.0,88,0.00,OVC,FEW,0.09,0.0,WeatherDisplay:10.37,2013-06-26 18:48:00,
2013-06-26 20:53:00,51.8,48.4,29.09,NNW,330,0.0,0.0,88,0.00,OVC,FEW,0.09,0.0,WeatherDisplay:10.37,2013-06-26 18:53:00,
2013-06-26 20:58:00,51.4,48.0,29.09,WNW,290,0.0,0.0,88,0.00,OVC,FEW,0.09,0.0,WeatherDisplay:10.37,2013-06-26 18:58:00,
2013-06-26 21:03:00,51.4,47.7,29.09,NNE,20,0.0,0.0,87,0.00,OVC,FEW,0.09,0.0,WeatherDisplay:10.37,2013-06-26 19:03:00,
2013-06-26 21:08:00,51.4,47.7,29.09,NNE,20,0.0,0.0,87,0.00,OVC,FEW,0.09,0.0,WeatherDisplay:10.37,2013-06-26 19:08:00,
2013-06-26 21:13:00,51.4,47.7,29.09,NNE,20,0.0,0.0,87,0.00,OVC,FEW,0.09,0.0,WeatherDisplay:10.37,2013-06-26 19:13:00,
2013-06-26 21:18:00,51.1,47.6,29.12,NNE,20,0.0,0.0,88,0.00,OVC,FEW,0.09,0.0,WeatherDisplay:10.37,2013-06-26 19:18:00,
2013-06-26 21:23:00,51.1,47.6,29.12,NNE,20,0.0,0.0,88,0.00,OVC,FEW,0.09,0.0,WeatherDisplay:10.37,2013-06-26 19:23:00,
2013-06-26 21:28:00,50.9,47.5,29.12,NNE,20,0.0,0.0,88,0.00,OVC,FEW,0.09,0.0,WeatherDisplay:10.37,2013-06-26 19:28:00,
2013-06-26 21:33:00,50.4,47.2,29.12,NNE,20,0.0,0.0,89,0.00,OVC,FEW,0.09,0.0,WeatherDisplay:10.37,2013-06-26 19:33:00,
2013-06-26 21:38:00,50.4,47.2,29.12,NNE,20,0.0,0.0,89,0.00,OVC,FEW,0.09,0.0,WeatherDisplay:10.37,2013-06-26 19:38:00,
2013-06-26 21:43:00,50.2,47.1,29.12,NNE,25,0.0,0.0,89,0.00,OVC,FEW,0.09,0.0,WeatherDisplay:10.37,2013-06-26 19:43:00,
2013-06-26 21:48:00,49.8,46.7,29.12,NNE,25,0.0,0.0,89,0.00,CLR,FEW,0.09,0.0,WeatherDisplay:10.37,2013-06-26 19:48:00,
2013-06-26 21:53:00,49.6,46.5,29.12,NNE,25,0.0,0.0,89,0.00,CLR,FEW,0.09,0.0,WeatherDisplay:10.37,2013-06-26 19:53:00,
2013-06-26 21:58:00,49.3,46.5,29.09,NNE,25,0.0,0.0,90,0.00,CLR,FEW,0.09,0.0,WeatherDisplay:10.37,2013-06-26 19:58:00,
2013-06-26 22:03:00,49.3,46.5,29.09,NNE,25,0.0,0.0,90,0.00,CLR,FEW,0.09,0.0,WeatherDisplay:10.37,2013-06-26 20:03:00,
2013-06-26 22:08:00,48.9,46.4,29.09,NNE,25,0.0,0.0,91,0.00,CLR,FEW,0.09,0.0,WeatherDisplay:10.37,2013-06-26 20:08:00,
2013-06-26 22:13:00,48.9,46.4,29.09,NNE,25,0.0,0.0,91,0.00,CLR,FEW,0.09,0.0,WeatherDisplay:10.37,2013-06-26 20:13:00,
2013-06-26 22:18:00,48.7,46.5,29.12,NNE,25,0.0,0.0,92,0.00,CLR,FEW,0.09,0.0,WeatherDisplay:10.37,2013-06-26 20:18:00,
2013-06-26 22:23:00,48.4,46.2,29.12,NNE,25,0.0,0.0,92,0.00,CLR,FEW,0.09,0.0,WeatherDisplay:10.37,2013-06-26 20:23:00,
2013-06-26 22:28:00,48.4,46.2,29.12,NNE,25,0.0,0.0,92,0.00,CLR,FEW,0.09,0.0,WeatherDisplay:10.37,2013-06-26 20:28:00,
2013-06-26 22:33:00,48.2,46.3,29.09,NNE,25,0.0,0.0,93,0.00,CLR,FEW,0.09,0.0,WeatherDisplay:10.37,2013-06-26 20:33:00,
2013-06-26 22:38:00,48.2,46.3,29.09,NNE,25,0.0,0.0,93,0.00,CLR,FEW,0.09,0.0,WeatherDisplay:10.37,2013-06-26 20:38:00,
2013-06-26 22:43:00,48.0,46.1,29.12,NNE,25,0.0,0.0,93,0.00,CLR,FEW,0.09,0.0,WeatherDisplay:10.37,2013-06-26 20:43:00,
2013-06-26 22:48:00,48.0,46.1,29.12,NNE,25,0.0,0.0,93,0.00,CLR,FEW,0.09,0.0,WeatherDisplay:10.37,2013-06-26 20:48:00,
2013-06-26 22:53:00,48.0,46.1,29.12,NNE,25,0.0,0.0,93,0.00,CLR,FEW,0.09,0.0,WeatherDisplay:10.37,2013-06-26 20:53:00,
2013-06-26 22:58:00,48.0,46.1,29.12,NNE,25,0.0,0.0,93,0.00,CLR,FEW,0.09,0.0,WeatherDisplay:10.37,2013-06-26 20:58:00,
2013-06-26 23:03:00,47.8,46.2,29.12,NNE,25,0.0,0.0,94,0.00,CLR,FEW,0.09,0.0,WeatherDisplay:10.37,2013-06-26 21:03:00,
2013-06-26 23:08:00,47.7,46.0,29.12,NNE,25,0.0,0.0,94,0.00,CLR,FEW,0.09,0.0,WeatherDisplay:10.37,2013-06-26 21:08:00,
2013-06-26 23:13:00,47.7,46.0,29.12,NNE,25,0.0,0.0,94,0.00,CLR,FEW,0.09,0.0,WeatherDisplay:10.37,2013-06-26 21:13:00,
2013-06-26 23:18:00,47.5,45.8,29.12,NNE,25,0.0,0.0,94,0.00,CLR,FEW,0.09,0.0,WeatherDisplay:10.37,2013-06-26 21:18:00,
2013-06-26 23:23:00,47.5,45.8,29.12,NNE,25,0.0,0.0,94,0.00,CLR,FEW,0.09,0.0,WeatherDisplay:10.37,2013-06-26 21:23:00,
2013-06-26 23:28:00,47.5,45.8,29.12,NNE,25,0.0,0.0,94,0.00,CLR,FEW,0.09,0.0,WeatherDisplay:10.37,2013-06-26 21:28:00,
2013-06-26 23:33:00,47.5,45.8,29.12,NNE,25,0.0,0.0,94,0.00,CLR,FEW,0.09,0.0,WeatherDisplay:10.37,2013-06-26 21:33:00,
2013-06-26 23:38:00,47.5,45.8,29.12,NNE,25,0.0,0.0,94,0.00,CLR,FEW,0.09,0.0,WeatherDisplay:10.37,2013-06-26 21:38:00,
2013-06-26 23:43:00,47.5,45.8,29.12,NNE,25,0.0,0.0,94,0.00,CLR,FEW,0.09,0.0,WeatherDisplay:10.37,2013-06-26 21:43:00,
2013-06-26 23:48:00,47.5,45.8,29.12,NNE,25,0.0,0.0,94,0.00,CLR,FEW,0.09,0.0,WeatherDisplay:10.37,2013-06-26 21:48:00,
2013-06-26 23:53:00,47.5,45.8,29.12,NNE,25,0.0,0.0,94,0.00,CLR,FEW,0.09,0.0,WeatherDisplay:10.37,2013-06-26 21:53:00,
2013-06-26 23:58:00,47.5,45.8,29.12,NNE,20,0.0,0.0,94,0.00,CLR,FEW,0.09,0.0,WeatherDisplay:10.37,2013-06-26 21:58:00,